sensor_id;sensor_type;location;lat;lon;timestamp;temperature;humidity
10306;DHT22;5198;52.382;9.020;2024-02-26T04:47:10;3.00;99.90
10306;DHT22;5198;52.382;9.020;2024-02-26T04:51:14;3.00;99.90
10306;DHT22;5198;52.382;9.020;2024-02-26T04:55:17;3.10;99.90
10306;DHT22;5198;52.382;9.020;2024-02-26T04:59:20;3.20;99.90
10306;DHT22;5198;52.382;9.020;2024-02-26T05:03:24;3.30;99.90
10306;DHT22;5198;52.382;9.020;2024-02-26T05:07:27;3.40;99.90
10306;DHT22;5198;52.382;9.020;2024-02-26T05:11:30;3.50;99.90
10306;DHT22;5198;52.382;9.020;2024-02-26T05:15:33;3.50;99.90
10306;DHT22;5198;52.382;9.020;2024-02-26T05:19:38;3.60;99.90
10306;DHT22;5198;52.382;9.020;2024-02-26T05:23:41;3.60;99.90
10306;DHT22;5198;52.382;9.020;2024-02-26T05:27:45;3.70;99.90
10306;DHT22;5198;52.382;9.020;2024-02-26T05:31:48;3.70;99.90
10306;DHT22;5198;52.382;9.020;2024-02-26T05:35:52;3.80;99.90
10306;DHT22;5198;52.382;9.020;2024-02-26T05:39:55;3.80;99.90
10306;DHT22;5198;52.382;9.020;2024-02-26T05:43:58;3.80;99.90
10306;DHT22;5198;52.382;9.020;2024-02-26T05:48:01;3.80;99.90
10306;DHT22;5198;52.382;9.020;2024-02-26T05:52:06;3.90;99.90
10306;DHT22;5198;52.382;9.020;2024-02-26T05:56:09;3.90;99.90
10306;DHT22;5198;52.382;9.020;2024-02-26T06:00:12;3.90;99.90
10306;DHT22;5198;52.382;9.020;2024-02-26T06:04:16;3.90;99.90
10306;DHT22;5198;52.382;9.020;2024-02-26T06:08:22;3.90;99.90
10306;DHT22;5198;52.382;9.020;2024-02-26T06:12:25;4.00;99.90
10306;DHT22;5198;52.382;9.020;2024-02-26T06:16:30;4.00;99.90
10306;DHT22;5198;52.382;9.020;2024-02-26T06:20:33;4.00;99.90
10306;DHT22;5198;52.382;9.020;2024-02-26T06:24:38;4.00;99.90
10306;DHT22;5198;52.382;9.020;2024-02-26T06:28:41;4.00;99.90
10306;DHT22;5198;52.382;9.020;2024-02-26T06:32:43;4.00;99.90
10306;DHT22;5198;52.382;9.020;2024-02-26T06:36:46;4.00;99.90
10306;DHT22;5198;52.382;9.020;2024-02-26T06:40:51;4.10;99.90
10306;DHT22;5198;52.382;9.020;2024-02-26T06:44:54;4.10;99.90
10306;DHT22;5198;52.382;9.020;2024-02-26T06:48:56;4.10;99.90
10306;DHT22;5198;52.382;9.020;2024-02-26T06:52:59;4.10;99.90
10306;DHT22;5198;52.382;9.020;2024-02-26T06:57:05;4.10;99.90
10306;DHT22;5198;52.382;9.020;2024-02-26T07:01:08;4.10;99.90
10306;DHT22;5198;52.382;9.020;2024-02-26T07:05:11;4.10;99.90
10306;DHT22;5198;52.382;9.020;2024-02-26T07:09:14;4.20;99.90
10306;DHT22;5198;52.382;9.020;2024-02-26T07:13:19;4.20;99.90
10306;DHT22;5198;52.382;9.020;2024-02-26T07:17:22;4.20;99.90
10306;DHT22;5198;52.382;9.020;2024-02-26T07:21:25;4.20;99.90
10306;DHT22;5198;52.382;9.020;2024-02-26T07:25:28;4.20;99.90
10306;DHT22;5198;52.382;9.020;2024-02-26T07:29:33;4.30;99.90
10306;DHT22;5198;52.382;9.020;2024-02-26T07:33:35;4.30;99.90
10306;DHT22;5198;52.382;9.020;2024-02-26T07:37:38;4.30;99.90
10306;DHT22;5198;52.382;9.020;2024-02-26T07:41:41;4.40;99.90
10306;DHT22;5198;52.382;9.020;2024-02-26T07:45:49;4.40;99.90
10306;DHT22;5198;52.382;9.020;2024-02-26T07:49:52;4.50;99.90
10306;DHT22;5198;52.382;9.020;2024-02-26T07:53:55;4.50;99.90
10306;DHT22;5198;52.382;9.020;2024-02-26T07:57:58;4.50;99.90
10306;DHT22;5198;52.382;9.020;2024-02-26T08:02:03;4.60;99.90
10306;DHT22;5198;52.382;9.020;2024-02-26T08:06:07;4.60;99.90
10306;DHT22;5198;52.382;9.020;2024-02-26T08:10:11;4.60;99.90
10306;DHT22;5198;52.382;9.020;2024-02-26T08:14:14;4.70;99.90
10306;DHT22;5198;52.382;9.020;2024-02-26T15:15:42;8.70;99.90
10306;DHT22;5198;52.382;9.020;2024-02-26T15:28:02;8.70;99.90
10306;DHT22;5198;52.382;9.020;2024-02-26T15:32:07;8.70;99.90
10306;DHT22;5198;52.382;9.020;2024-02-26T15:36:22;8.80;99.90
10306;DHT22;5198;52.382;9.020;2024-02-26T15:40:25;8.80;99.90
10306;DHT22;5198;52.382;9.020;2024-02-26T15:44:28;8.80;99.90
10306;DHT22;5198;52.382;9.020;2024-02-26T15:48:33;8.80;99.90
10306;DHT22;5198;52.382;9.020;2024-02-26T15:52:38;8.80;99.90
10306;DHT22;5198;52.382;9.020;2024-02-26T15:56:42;8.80;99.90
10306;DHT22;5198;52.382;9.020;2024-02-26T16:00:45;8.80;99.90
10306;DHT22;5198;52.382;9.020;2024-02-26T16:04:50;8.90;99.90
10306;DHT22;5198;52.382;9.020;2024-02-26T16:08:53;8.90;99.90
10306;DHT22;5198;52.382;9.020;2024-02-26T16:12:56;8.90;99.90
10306;DHT22;5198;52.382;9.020;2024-02-26T16:17:08;8.90;99.90
10306;DHT22;5198;52.382;9.020;2024-02-26T16:21:14;8.80;99.90
10306;DHT22;5198;52.382;9.020;2024-02-26T16:25:17;8.80;99.90
10306;DHT22;5198;52.382;9.020;2024-02-26T16:29:20;8.80;99.90
10306;DHT22;5198;52.382;9.020;2024-02-26T16:33:24;8.80;99.90
10306;DHT22;5198;52.382;9.020;2024-02-26T16:37:29;8.80;99.90
10306;DHT22;5198;52.382;9.020;2024-02-26T16:41:32;8.80;99.90
10306;DHT22;5198;52.382;9.020;2024-02-26T16:45:37;8.80;99.90
10306;DHT22;5198;52.382;9.020;2024-02-26T16:49:41;8.80;99.90
10306;DHT22;5198;52.382;9.020;2024-02-26T16:53:47;8.70;99.90
10306;DHT22;5198;52.382;9.020;2024-02-26T17:02:06;8.70;99.90
10306;DHT22;5198;52.382;9.020;2024-02-26T17:06:09;8.70;99.90
10306;DHT22;5198;52.382;9.020;2024-02-26T17:10:14;8.70;99.90
10306;DHT22;5198;52.382;9.020;2024-02-26T17:14:18;8.60;99.90
10306;DHT22;5198;52.382;9.020;2024-02-26T17:18:22;8.60;99.90
10306;DHT22;5198;52.382;9.020;2024-02-26T17:22:25;8.60;99.90
10306;DHT22;5198;52.382;9.020;2024-02-26T17:26:30;8.60;99.90
10306;DHT22;5198;52.382;9.020;2024-02-26T17:30:33;8.50;99.90
10306;DHT22;5198;52.382;9.020;2024-02-26T17:34:36;8.50;99.90
10306;DHT22;5198;52.382;9.020;2024-02-26T17:38:40;8.50;99.90
10306;DHT22;5198;52.382;9.020;2024-02-26T17:42:45;8.50;99.90
10306;DHT22;5198;52.382;9.020;2024-02-26T17:46:48;8.50;99.90
10306;DHT22;5198;52.382;9.020;2024-02-26T17:50:51;8.40;99.90
10306;DHT22;5198;52.382;9.020;2024-02-26T17:54:56;8.40;99.90
10306;DHT22;5198;52.382;9.020;2024-02-26T17:59:00;8.40;99.90
10306;DHT22;5198;52.382;9.020;2024-02-26T18:03:03;8.40;99.90
10306;DHT22;5198;52.382;9.020;2024-02-26T18:07:06;8.30;99.90
10306;DHT22;5198;52.382;9.020;2024-02-26T18:11:10;8.30;99.90
10306;DHT22;5198;52.382;9.020;2024-02-26T18:15:15;8.30;99.90
10306;DHT22;5198;52.382;9.020;2024-02-26T18:19:18;8.30;99.90
10306;DHT22;5198;52.382;9.020;2024-02-26T18:23:21;8.20;99.90
10306;DHT22;5198;52.382;9.020;2024-02-26T18:27:24;8.20;99.90
10306;DHT22;5198;52.382;9.020;2024-02-26T18:31:30;8.20;99.90
10306;DHT22;5198;52.382;9.020;2024-02-26T18:35:33;8.20;99.90
10306;DHT22;5198;52.382;9.020;2024-02-26T18:39:36;8.10;99.90
10306;DHT22;5198;52.382;9.020;2024-02-26T18:43:39;8.10;99.90
10306;DHT22;5198;52.382;9.020;2024-02-26T18:47:43;8.10;99.90
10306;DHT22;5198;52.382;9.020;2024-02-26T18:51:46;8.10;99.90
10306;DHT22;5198;52.382;9.020;2024-02-26T18:55:49;8.10;99.90
10306;DHT22;5198;52.382;9.020;2024-02-26T18:59:55;8.10;99.90
10306;DHT22;5198;52.382;9.020;2024-02-26T19:03:59;8.00;99.90
10306;DHT22;5198;52.382;9.020;2024-02-26T19:08:03;8.10;99.90
10306;DHT22;5198;52.382;9.020;2024-02-26T19:12:06;8.00;99.90
10306;DHT22;5198;52.382;9.020;2024-02-26T19:16:12;8.00;99.90
10306;DHT22;5198;52.382;9.020;2024-02-26T19:20:20;8.00;99.90
10306;DHT22;5198;52.382;9.020;2024-02-26T19:24:23;8.00;99.90
10306;DHT22;5198;52.382;9.020;2024-02-26T19:28:26;7.90;99.90
10306;DHT22;5198;52.382;9.020;2024-02-26T19:32:29;7.90;99.90
10306;DHT22;5198;52.382;9.020;2024-02-26T19:36:34;7.90;99.90
10306;DHT22;5198;52.382;9.020;2024-02-26T19:40:37;7.90;99.90
10306;DHT22;5198;52.382;9.020;2024-02-26T19:44:40;7.90;99.90
10306;DHT22;5198;52.382;9.020;2024-02-26T19:48:43;7.90;99.90
10306;DHT22;5198;52.382;9.020;2024-02-26T19:52:48;7.80;99.90
10306;DHT22;5198;52.382;9.020;2024-02-26T19:56:52;7.80;99.90
10306;DHT22;5198;52.382;9.020;2024-02-26T20:00:55;7.80;99.90
10306;DHT22;5198;52.382;9.020;2024-02-26T20:04:59;7.70;99.90
10306;DHT22;5198;52.382;9.020;2024-02-26T20:09:03;7.70;99.90
10306;DHT22;5198;52.382;9.020;2024-02-26T20:13:06;7.70;99.90
10306;DHT22;5198;52.382;9.020;2024-02-26T20:17:10;7.60;99.90
10306;DHT22;5198;52.382;9.020;2024-02-26T20:21:17;7.60;99.90
10306;DHT22;5198;52.382;9.020;2024-02-26T20:25:21;7.60;99.90
10306;DHT22;5198;52.382;9.020;2024-02-26T20:29:24;7.50;99.90
10306;DHT22;5198;52.382;9.020;2024-02-26T20:33:27;7.50;99.90
10306;DHT22;5198;52.382;9.020;2024-02-26T20:37:30;7.50;99.90
10306;DHT22;5198;52.382;9.020;2024-02-26T20:41:34;7.50;99.90
10306;DHT22;5198;52.382;9.020;2024-02-26T20:45:37;7.40;99.90
10306;DHT22;5198;52.382;9.020;2024-02-26T20:49:43;7.40;99.90
10306;DHT22;5198;52.382;9.020;2024-02-26T20:53:46;7.40;99.90
10306;DHT22;5198;52.382;9.020;2024-02-26T20:57:52;7.30;99.90
10306;DHT22;5198;52.382;9.020;2024-02-26T21:01:55;7.30;99.90
10306;DHT22;5198;52.382;9.020;2024-02-26T21:05:59;7.30;99.90
10306;DHT22;5198;52.382;9.020;2024-02-26T21:10:05;7.30;99.90
10306;DHT22;5198;52.382;9.020;2024-02-26T21:14:11;7.20;99.90
10306;DHT22;5198;52.382;9.020;2024-02-26T21:18:15;7.20;99.90
10306;DHT22;5198;52.382;9.020;2024-02-26T21:22:21;7.20;99.90
10306;DHT22;5198;52.382;9.020;2024-02-26T21:26:24;7.10;99.90
10306;DHT22;5198;52.382;9.020;2024-02-26T21:30:29;7.10;99.90
10306;DHT22;5198;52.382;9.020;2024-02-26T21:34:33;7.00;99.90
10306;DHT22;5198;52.382;9.020;2024-02-26T21:38:37;7.00;99.90
10306;DHT22;5198;52.382;9.020;2024-02-26T21:42:53;6.90;99.90
10306;DHT22;5198;52.382;9.020;2024-02-26T21:46:58;6.90;99.90
10306;DHT22;5198;52.382;9.020;2024-02-26T21:51:02;6.90;99.90
10306;DHT22;5198;52.382;9.020;2024-02-26T21:55:10;6.80;99.90
10306;DHT22;5198;52.382;9.020;2024-02-26T21:59:13;6.80;99.90
10306;DHT22;5198;52.382;9.020;2024-02-26T22:03:20;6.70;99.90
10306;DHT22;5198;52.382;9.020;2024-02-26T22:07:30;6.70;99.90
10306;DHT22;5198;52.382;9.020;2024-02-26T22:11:33;6.70;99.90
10306;DHT22;5198;52.382;9.020;2024-02-26T22:15:37;6.60;99.90
10306;DHT22;5198;52.382;9.020;2024-02-26T22:19:47;6.60;99.90
10306;DHT22;5198;52.382;9.020;2024-02-26T22:23:54;6.60;99.90
10306;DHT22;5198;52.382;9.020;2024-02-26T22:28:06;6.50;99.90
10306;DHT22;5198;52.382;9.020;2024-02-26T22:32:10;6.50;99.90
10306;DHT22;5198;52.382;9.020;2024-02-26T22:36:18;6.50;99.90
10306;DHT22;5198;52.382;9.020;2024-02-26T22:40:22;6.40;99.90
10306;DHT22;5198;52.382;9.020;2024-02-26T22:44:25;6.40;99.90
10306;DHT22;5198;52.382;9.020;2024-02-26T22:52:33;6.30;99.90
10306;DHT22;5198;52.382;9.020;2024-02-26T22:56:36;6.30;99.90
10306;DHT22;5198;52.382;9.020;2024-02-26T23:00:39;6.30;99.90
10306;DHT22;5198;52.382;9.020;2024-02-26T23:04:43;6.20;99.90
10306;DHT22;5198;52.382;9.020;2024-02-26T23:08:49;6.20;99.90
10306;DHT22;5198;52.382;9.020;2024-02-26T23:13:02;6.20;99.90
10306;DHT22;5198;52.382;9.020;2024-02-26T23:17:05;6.10;99.90
10306;DHT22;5198;52.382;9.020;2024-02-26T23:21:08;6.10;99.90
10306;DHT22;5198;52.382;9.020;2024-02-26T23:25:12;6.00;99.90
10306;DHT22;5198;52.382;9.020;2024-02-26T23:33:22;6.00;99.90
10306;DHT22;5198;52.382;9.020;2024-02-26T23:37:30;6.00;99.90
10306;DHT22;5198;52.382;9.020;2024-02-26T23:41:34;5.90;99.90
